»·PEaware :: NKS9030 KLAS-KSNA

NKS9030 :: KLAS-KSNA

FLIGHT INFORMATION

Flight Status: Arrived
Operator:
Spirit Airlines
More flights by this operator :: More flights under this callsign
Pilot: Skye D. (10623)
Aircraft: AIRBUS A319
(A319)
More flights by this aircraft type
Origin: KLAS McCarran Intl
United States
Destination: KSNA John Wayne-Orange Co
United States
More flights between these airports :: More routes between these airports
Route: BOACH8 WHIGG FEYLA DSNEE4
File this flight plan on PilotEdge
Remarks:
Altitude:
(Current/Filed)
24,000ft
Speed:
(Current/Filed)
408kts
Departed: 28-Sep-18 03:18 PM
Arrived: 28-Sep-18 04:07 PM
Distance/Time
Traveled:
196nm/0:49
Distance/Time
To Go:
Arrived

Flight Plot

Page will automatically refresh every two minutes.

Flight plan parsing failed; only flown route is shown


Map Options




Map Legend


Flown Route
Filed Route
Departure Airport
Arrival Airport
Navaid (VOR, NDB)
Fix

Horizontal Profiles

Position Reports

Time Latitude Longitude Heading Altitude Ground
Speed
28-Sep-18 14:49 36.081161 -115.147861 65 2099ft 0kts
28-Sep-18 14:50 36.081161 -115.147861 65 2099ft 0kts
28-Sep-18 14:51 36.081161 -115.147861 65 2099ft 0kts
28-Sep-18 14:52 36.081161 -115.147861 65 2099ft 0kts
28-Sep-18 14:53 36.081161 -115.147861 65 2099ft 0kts
28-Sep-18 14:54 36.081161 -115.147861 65 2099ft 0kts
28-Sep-18 14:55 36.081161 -115.147861 65 2099ft 0kts
28-Sep-18 14:56 36.081161 -115.147861 65 2099ft 0kts
28-Sep-18 14:57 36.081161 -115.147861 65 2099ft 0kts
28-Sep-18 14:58 36.081161 -115.147861 65 2099ft 0kts
28-Sep-18 14:59 36.081161 -115.147861 65 2099ft 0kts
28-Sep-18 15:00 36.081161 -115.147861 65 2099ft 0kts
28-Sep-18 15:01 36.081161 -115.147861 65 2099ft 0kts
28-Sep-18 15:02 36.081161 -115.147861 65 2099ft 0kts
28-Sep-18 15:03 36.081161 -115.147861 65 2099ft 0kts
28-Sep-18 15:04 36.081161 -115.147861 65 2099ft 0kts
28-Sep-18 15:05 36.081161 -115.147861 65 2099ft 0kts
28-Sep-18 15:06 36.080996 -115.148308 65 2100ft 1kts
28-Sep-18 15:07 36.080954 -115.148572 93 2101ft 1kts
28-Sep-18 15:08 36.081022 -115.148826 124 2102ft 0kts
28-Sep-18 15:09 36.081022 -115.148826 124 2102ft 0kts
28-Sep-18 15:10 36.081022 -115.148826 124 2102ft 0kts
28-Sep-18 15:11 36.080988 -115.148763 123 2102ft 1kts
28-Sep-18 15:12 36.080614 -115.148084 151 2100ft 0kts
28-Sep-18 15:13 36.079335 -115.147571 154 2102ft 5kts
28-Sep-18 15:14 36.079195 -115.147490 155 2102ft 5kts
28-Sep-18 15:15 36.077866 -115.148982 274 2109ft 12kts
28-Sep-18 15:16 36.078017 -115.154651 270 2131ft 18kts
28-Sep-18 15:17 36.078046 -115.159917 269 2149ft 14kts
28-Sep-18 15:18 36.077439 -115.161277 179 2155ft 0kts
28-Sep-18 15:19 36.077252 -115.161275 179 2156ft 10kts
28-Sep-18 15:20 36.076343 -115.156097 90 2140ft 91kts
28-Sep-18 15:21 36.076490 -115.118507 91 3274ft 172kts
28-Sep-18 15:22 36.076660 -115.073354 93 5617ft 178kts
28-Sep-18 15:23 36.076319 -115.019148 93 7026ft 246kts
28-Sep-18 15:24 36.060394 -114.946577 145 8696ft 277kts
28-Sep-18 15:25 35.991550 -114.913095 166 11113ft 313kts
28-Sep-18 15:26 35.918105 -114.953460 225 13877ft 329kts
28-Sep-18 15:27 35.856079 -115.030916 224 16574ft 342kts
28-Sep-18 15:28 35.794635 -115.115190 231 19028ft 354kts
28-Sep-18 15:29 35.732149 -115.211422 231 21300ft 368kts
28-Sep-18 15:30 35.673564 -115.301159 230 23194ft 379kts
28-Sep-18 15:31 35.606248 -115.391341 228 23947ft 415kts
28-Sep-18 15:32 35.531945 -115.490794 228 23953ft 416kts
28-Sep-18 15:33 35.463452 -115.582799 228 23953ft 416kts
28-Sep-18 15:34 35.393246 -115.677574 228 23953ft 416kts
28-Sep-18 15:35 35.317773 -115.780019 227 23955ft 417kts
28-Sep-18 15:36 35.246623 -115.875132 227 23959ft 417kts
28-Sep-18 15:37 35.172008 -115.971269 225 23961ft 417kts
28-Sep-18 15:38 35.095330 -116.067548 226 23962ft 417kts
28-Sep-18 15:39 35.017310 -116.165410 226 23962ft 417kts
28-Sep-18 15:40 34.942966 -116.258392 226 23962ft 417kts
28-Sep-18 15:41 34.867478 -116.352559 226 23934ft 382kts
28-Sep-18 15:42 34.794851 -116.444981 226 23922ft 383kts
28-Sep-18 15:43 34.723700 -116.535355 227 23918ft 383kts
28-Sep-18 15:44 34.645895 -116.620143 220 23775ft 384kts
28-Sep-18 15:45 34.566825 -116.698303 219 21515ft 386kts
28-Sep-18 15:46 34.487026 -116.779803 224 19157ft 365kts
28-Sep-18 15:47 34.418058 -116.859757 223 17495ft 348kts
28-Sep-18 15:48 34.350774 -116.937558 223 15735ft 337kts
28-Sep-18 15:49 34.287291 -117.010608 222 14225ft 322kts
28-Sep-18 15:50 34.223319 -117.064905 210 14021ft 314kts
28-Sep-18 15:51 34.160589 -117.107861 205 13142ft 309kts
28-Sep-18 15:52 34.082638 -117.149682 204 12879ft 308kts
28-Sep-18 15:53 34.006835 -117.190992 210 11839ft 278kts
28-Sep-18 15:54 33.969641 -117.233478 228 11064ft 259kts
28-Sep-18 15:55 33.926010 -117.294728 228 10114ft 242kts
28-Sep-18 15:56 33.891891 -117.342952 228 9375ft 236kts
28-Sep-18 15:57 33.858741 -117.389525 228 8650ft 232kts
28-Sep-18 15:58 33.817065 -117.451960 241 7978ft 228kts
28-Sep-18 15:59 33.799556 -117.505583 249 7587ft 206kts
28-Sep-18 16:00 33.797743 -117.571848 272 6863ft 206kts
28-Sep-18 16:01 33.812344 -117.633888 301 5751ft 205kts
28-Sep-18 16:02 33.841364 -117.684396 301 5013ft 203kts
28-Sep-18 16:03 33.845278 -117.739303 236 4020ft 191kts
28-Sep-18 16:04 33.813018 -117.780735 211 2942ft 190kts
28-Sep-18 16:05 33.772511 -117.807628 207 2076ft 173kts
28-Sep-18 16:06 33.737439 -117.829816 207 1265ft 138kts
28-Sep-18 16:07 33.708537 -117.848070 207 669ft 128kts
28-Sep-18 16:08 33.682693 -117.864420 207 104ft 127kts
28-Sep-18 16:09 33.670586 -117.872040 206 57ft 21kts
28-Sep-18 16:10 33.669699 -117.870271 40 55ft 11kts
28-Sep-18 16:11 33.673247 -117.867071 38 52ft 17kts
28-Sep-18 16:12 33.676235 -117.865145 27 49ft 15kts
28-Sep-18 16:13 33.678432 -117.863287 118 45ft 6kts
28-Sep-18 16:14 33.678304 -117.863018 116 45ft 0kts
28-Sep-18 16:15 33.678304 -117.863018 116 45ft 0kts
28-Sep-18 16:16 33.678304 -117.863018 116 45ft 0kts

Navigation Log

Ident Type
Flight plan parsing failed, navigation log unavailable